createdAt,value
2019-05-01T00:01:13.720Z,8.4
2019-05-01T00:06:13.682Z,8.7
2019-05-01T00:11:14.714Z,8.4
2019-05-01T00:16:13.664Z,8.6
2019-05-01T00:21:13.683Z,8.2
2019-05-01T00:26:13.628Z,8.3
2019-05-01T00:31:13.630Z,8
2019-05-01T00:41:13.632Z,8.1
2019-05-01T00:46:13.627Z,8.4
2019-05-01T00:51:13.678Z,7.9
2019-05-01T00:56:13.645Z,7.4
2019-05-01T01:01:13.628Z,7.6
2019-05-01T01:06:13.612Z,8
2019-05-01T01:11:13.591Z,7.9
2019-05-01T01:16:13.607Z,7.8
2019-05-01T01:21:13.619Z,7.7
2019-05-01T01:26:13.599Z,7.5
2019-05-01T01:31:13.622Z,7.7
2019-05-01T01:36:13.607Z,7.8
2019-05-01T01:41:13.628Z,8.1
2019-05-01T01:46:13.628Z,7.8
2019-05-01T01:56:13.641Z,7.3
2019-05-01T02:01:17.894Z,7.4
2019-05-01T02:06:13.579Z,7.8
2019-05-01T02:16:13.527Z,7.6
2019-05-01T02:21:13.563Z,7.6
2019-05-01T02:26:13.538Z,7.9
2019-05-01T02:31:29.951Z,7.6
2019-05-01T02:36:13.552Z,7.9
2019-05-01T02:41:13.518Z,8
2019-05-01T02:46:13.550Z,8.2
2019-05-01T02:51:13.621Z,7.5
2019-05-01T02:56:13.554Z,7.4
2019-05-01T03:01:14.663Z,7.6
2019-05-01T03:06:13.539Z,7.4
2019-05-01T03:11:13.517Z,7.6
2019-05-01T03:16:13.511Z,7.8
2019-05-01T03:21:13.494Z,7.6
2019-05-01T03:26:13.577Z,7.6
2019-05-01T03:31:13.556Z,7.5
2019-05-01T03:41:13.496Z,7.6
2019-05-01T03:46:13.485Z,7.3
2019-05-01T03:51:13.644Z,7.3
2019-05-01T03:56:13.517Z,7.4
2019-05-01T04:01:13.459Z,7.3
2019-05-01T04:06:13.445Z,7.3
2019-05-01T04:11:13.455Z,7.4
2019-05-01T04:16:13.433Z,7.2
2019-05-01T04:26:13.433Z,7.3
2019-05-01T04:31:13.484Z,7.6
2019-05-01T04:36:13.448Z,7.2
2019-05-01T04:41:13.502Z,7.2
2019-05-01T04:46:13.414Z,7.5
2019-05-01T04:51:13.437Z,7.3
2019-05-01T04:56:13.425Z,7.5
2019-05-01T05:01:13.352Z,7.1
2019-05-01T05:06:13.441Z,7.2
2019-05-01T05:11:13.506Z,7.5
2019-05-01T05:16:13.433Z,7.2
2019-05-01T05:21:13.409Z,7.2
2019-05-01T05:26:13.393Z,7.6
2019-05-01T05:31:13.324Z,7.4
2019-05-01T05:36:13.395Z,7.1
2019-05-01T05:41:13.350Z,7
2019-05-01T05:46:13.364Z,7.1
2019-05-01T05:51:13.364Z,7
2019-05-01T05:56:13.308Z,7.1
2019-05-01T06:01:13.354Z,7.6
2019-05-01T06:06:13.352Z,7.6
2019-05-01T06:11:13.308Z,7.3
2019-05-01T06:16:17.617Z,7.4
2019-05-01T06:21:13.355Z,7.6
2019-05-01T06:26:13.333Z,7.6
2019-05-01T06:31:13.291Z,7.5
2019-05-01T06:36:14.549Z,7.8
2019-05-01T06:41:14.394Z,7.5
2019-05-01T06:46:17.417Z,7.8
2019-05-01T06:51:19.059Z,7.6
2019-05-01T06:56:13.271Z,7.5
2019-05-01T07:01:24.195Z,7.6
2019-05-01T07:06:14.827Z,7.7
2019-05-01T07:11:16.823Z,7.5
2019-05-01T07:16:13.268Z,7.7
2019-05-01T07:21:13.231Z,7.6
2019-05-01T07:26:14.949Z,7.7
2019-05-01T07:31:13.231Z,7.4
2019-05-01T07:36:16.735Z,7.3
2019-05-01T07:41:13.271Z,7.2
2019-05-01T07:46:19.686Z,7.5
2019-05-01T07:51:13.207Z,7.3
2019-05-01T07:56:13.225Z,7.4
2019-05-01T08:01:20.300Z,7.6
2019-05-01T08:06:23.043Z,7.9
2019-05-01T08:11:13.168Z,7.8
2019-05-01T08:16:14.626Z,8.1
2019-05-01T08:21:13.206Z,7.9
2019-05-01T08:26:13.208Z,7.8
2019-05-01T08:31:13.216Z,8.2
2019-05-01T08:36:13.718Z,7.8
2019-05-01T08:41:13.184Z,7.8
2019-05-01T08:46:17.961Z,7.7
2019-05-01T08:51:13.195Z,8.4
2019-05-01T08:56:23.592Z,8
2019-05-01T09:01:16.625Z,8.3
2019-05-01T09:06:13.130Z,8.5
2019-05-01T09:11:13.106Z,8.4
2019-05-01T09:16:13.152Z,8.2
2019-05-01T09:21:13.151Z,8.3
2019-05-01T09:26:16.521Z,8.3
2019-05-01T09:31:13.151Z,8.5
2019-05-01T09:36:13.119Z,8.7
2019-05-01T09:41:13.115Z,8.4
2019-05-01T09:46:13.162Z,8.5
2019-05-01T09:51:17.866Z,8.7
2019-05-01T09:56:18.393Z,8.5
2019-05-01T10:01:18.384Z,8.9
2019-05-01T10:06:19.017Z,8.6
2019-05-01T10:11:28.751Z,8.7
2019-05-01T10:16:18.389Z,8.5
2019-05-01T10:21:28.836Z,8.7
2019-05-01T10:26:25.562Z,8.6
2019-05-01T10:31:18.305Z,8.8
2019-05-01T10:36:20.841Z,8.9
2019-05-01T10:41:18.341Z,9.2
2019-05-01T10:46:18.309Z,8.8
2019-05-01T10:51:18.370Z,9.2
2019-05-01T10:56:18.300Z,9.1
2019-05-01T11:01:18.302Z,9
2019-05-01T11:06:18.288Z,9.1
2019-05-01T11:11:18.300Z,9.4
2019-05-01T11:16:18.304Z,9.4
2019-05-01T11:21:18.263Z,9.6
2019-05-01T11:26:18.328Z,9.3
2019-05-01T11:31:18.314Z,9.4
2019-05-01T11:41:19.701Z,9.7
2019-05-01T11:46:19.752Z,9.7
2019-05-01T11:51:24.003Z,9.9
2019-05-01T11:56:19.705Z,9.9
2019-05-01T12:01:19.680Z,9.7
2019-05-01T12:06:23.567Z,9.9
2019-05-01T12:11:19.674Z,9.8
2019-05-01T12:16:19.642Z,10
2019-05-01T12:26:21.176Z,10
2019-05-01T12:31:21.205Z,10.4
2019-05-01T12:36:21.170Z,10.4
2019-05-01T12:41:21.175Z,10.3
2019-05-01T12:46:21.211Z,10.6
2019-05-01T12:51:21.406Z,10.2
2019-05-01T12:56:21.414Z,10.5
2019-05-01T13:01:21.404Z,10.6
2019-05-01T13:06:21.448Z,10.5
2019-05-01T13:11:21.375Z,10.3
2019-05-01T13:16:21.405Z,10.1
2019-05-01T13:21:21.363Z,10.3
2019-05-01T13:26:21.684Z,10.4
2019-05-01T13:31:25.762Z,10.2
2019-05-01T13:36:25.730Z,10
2019-05-01T13:41:30.062Z,10.5
2019-05-01T13:46:26.229Z,10.5
2019-05-01T13:51:26.208Z,10.4
2019-05-01T13:56:26.460Z,10.5
2019-05-01T14:01:26.465Z,10.6
2019-05-01T14:06:26.458Z,10.7
2019-05-01T14:11:26.499Z,10.7
2019-05-01T14:16:26.463Z,10.8
2019-05-01T14:21:26.456Z,10.6
2019-05-01T14:26:26.439Z,10.7
2019-05-01T14:31:26.414Z,10.9
2019-05-01T14:36:26.459Z,10.9
2019-05-01T14:41:26.482Z,10.7
2019-05-01T14:46:26.473Z,10.8
2019-05-01T14:51:26.411Z,10.9
2019-05-01T14:56:26.408Z,10.9
2019-05-01T15:01:27.744Z,10.7
2019-05-01T15:06:26.460Z,10.8
2019-05-01T15:11:26.421Z,10.9
2019-05-01T15:16:26.397Z,10.6
2019-05-01T15:21:26.386Z,10.6
2019-05-01T15:26:26.390Z,10.5
2019-05-01T15:31:27.191Z,10.2
2019-05-01T15:36:26.379Z,10.2
2019-05-01T15:41:26.336Z,10.1
2019-05-01T15:46:26.410Z,10.2
2019-05-01T15:51:26.366Z,10.2
2019-05-01T15:56:26.371Z,10.3
2019-05-01T16:01:26.316Z,10.4
2019-05-01T16:06:26.348Z,10.3
2019-05-01T16:11:26.381Z,10.4
2019-05-01T16:16:26.332Z,10
2019-05-01T16:21:26.346Z,10.1
2019-05-01T16:26:26.358Z,10
2019-05-01T16:31:26.283Z,10.1
2019-05-01T16:36:27.036Z,10.2
2019-05-01T16:41:27.055Z,10.3
2019-05-01T16:46:27.047Z,10.4
2019-05-01T16:51:27.021Z,10.4
2019-05-01T16:56:27.052Z,10.3
2019-05-01T17:01:27.027Z,10.4
2019-05-01T17:06:27.029Z,10.3
2019-05-01T17:11:27.010Z,10.4
2019-05-01T17:16:27.030Z,10.3
2019-05-01T17:21:27.002Z,10.3
2019-05-01T17:26:27.009Z,10.3
2019-05-01T17:31:26.989Z,10.3
2019-05-01T17:36:27.014Z,10.5
2019-05-01T17:41:28.867Z,10.3
2019-05-01T17:46:26.946Z,10.1
2019-05-01T17:51:27.772Z,10.1
2019-05-01T17:56:28.984Z,10.2
2019-05-01T18:01:34.515Z,10.1
2019-05-01T18:06:29.199Z,10.2
2019-05-01T18:11:29.215Z,10.2
2019-05-01T18:16:29.219Z,10.1
2019-05-01T18:21:29.187Z,10.1
2019-05-01T18:26:29.460Z,9.9
2019-05-01T18:31:44.495Z,10
2019-05-01T18:36:29.165Z,10
2019-05-01T18:37:52.950Z,9.9
2019-05-01T18:42:52.938Z,10.1
2019-05-01T18:47:52.930Z,9.9
2019-05-01T18:52:52.907Z,9.6
2019-05-01T18:57:53.028Z,9.6
2019-05-01T19:03:05.657Z,9.6
2019-05-01T19:07:58.505Z,9.7
2019-05-01T19:18:00.306Z,9.5
2019-05-01T19:22:59.340Z,9.5
2019-05-01T19:27:59.276Z,9.6
2019-05-01T19:33:00.040Z,9.4
2019-05-01T19:38:00.120Z,9.3
2019-05-01T19:43:00.633Z,9.5
2019-05-01T19:48:00.011Z,9.4
2019-05-01T19:53:00.040Z,9.3
2019-05-01T19:58:00.018Z,9.3
2019-05-01T20:03:00.628Z,9.1
2019-05-01T20:07:59.973Z,8.9
2019-05-01T20:12:59.958Z,8.9
2019-05-01T20:18:00.000Z,8.9
2019-05-01T20:22:59.967Z,8.9
2019-05-01T20:27:59.949Z,8.7
2019-05-01T20:33:03.904Z,8.9
2019-05-01T20:37:59.948Z,8.7
2019-05-01T20:43:07.521Z,8.5
2019-05-01T20:47:59.943Z,8.3
2019-05-01T20:57:59.927Z,8.4
2019-05-01T21:02:59.891Z,8
2019-05-01T21:07:59.921Z,8.1
2019-05-01T21:12:59.982Z,8
2019-05-01T21:17:59.889Z,8.1
2019-05-01T21:23:11.883Z,8.1
2019-05-01T21:27:59.915Z,7.9
2019-05-01T21:33:14.145Z,7.9
2019-05-01T21:37:59.888Z,8.1
2019-05-01T21:42:59.891Z,7.9
2019-05-01T21:47:59.917Z,7.8
2019-05-01T21:53:07.260Z,7.9
2019-05-01T21:57:59.842Z,7.8
2019-05-01T22:02:59.865Z,7.6
2019-05-01T22:08:05.175Z,7.8
2019-05-01T22:12:59.841Z,7.7
2019-05-01T22:17:59.852Z,7.7
2019-05-01T22:22:59.860Z,7.8
2019-05-01T22:27:59.840Z,7.6
2019-05-01T22:32:59.854Z,7.8
2019-05-01T22:38:01.196Z,7.8
2019-05-01T22:42:59.815Z,7.7
2019-05-01T22:47:59.797Z,7.7
2019-05-01T22:52:59.811Z,7.4
2019-05-01T22:57:59.814Z,7.3
2019-05-01T23:03:07.451Z,7.4
2019-05-01T23:07:59.796Z,7.5
2019-05-01T23:13:00.569Z,7.2
2019-05-01T23:18:00.527Z,7.3
2019-05-01T23:23:00.574Z,7.5
2019-05-01T23:28:06.281Z,7.3
2019-05-01T23:33:00.536Z,7.3
2019-05-01T23:38:00.588Z,7.4
2019-05-01T23:43:00.551Z,7.5
2019-05-01T23:48:00.556Z,7.2
2019-05-01T23:53:00.510Z,7.1
2019-05-01T23:58:00.524Z,7.1
